WetterOnline ( https://www.wetteronline.de )

Wetter aktuell Weiden

Aktuelles Wetter: Weiden (439m)

6-stündlich | Neueste Meldungen
Ortszeit Temperatur Wetter
Di, 22.10. 14:00 16.4° C wolkig
Di, 22.10. 8:00 7.9° C Nebel
Di, 22.10. 2:00 9.7° C wolkig
Mo, 21.10. 20:00 12.1° C wolkig
Mo, 21.10. 14:00 14.4° C bedeckt
Mo, 21.10. 8:00 6.9° C leicht bewölkt
Mo, 21.10. 2:00 9.4° C wolkig
So, 20.10. 20:00 11.5° C wolkig
Ortszeit Temperatur Wetter
Di, 22.10. 15:30 17.5° C leicht bewölkt
Di, 22.10. 15:20 17.5° C leicht bewölkt
Di, 22.10. 15:10 17.6° C leicht bewölkt
Di, 22.10. 15:00 17.5° C leicht bewölkt
Di, 22.10. 14:50 17.5° C leicht bewölkt
Di, 22.10. 14:40 17.5° C wolkenlos
Di, 22.10. 14:30 17.3° C fast wolkenlos
Di, 22.10. 14:00 16.4° C wolkig
Di, 22.10. 13:30 15.5° C wolkig
Di, 22.10. 13:00 14.7° C wolkenlos
Di, 22.10. 12:30 14.3° C wolkenlos
Ortszeit Relative Feuchte Sichtweite
Di, 22.10. 14:00 73% 10 km
Di, 22.10. 8:00 99% 0.3 km
Di, 22.10. 2:00 100% 4.7 km
Mo, 21.10. 20:00 95% 9 km
Mo, 21.10. 14:00 77% 15 km
Mo, 21.10. 8:00 99% 5.0 km
Mo, 21.10. 2:00 96% 7 km
So, 20.10. 20:00 87% 12 km
Ortszeit Relative Feuchte Sichtweite
Di, 22.10. 15:30 70% 11 km
Di, 22.10. 15:20 70% -
Di, 22.10. 15:10 71% -
Di, 22.10. 15:00 70% 13 km
Di, 22.10. 14:50 70% -
Di, 22.10. 14:40 71% -
Di, 22.10. 14:30 74% 13 km
Di, 22.10. 14:00 73% 10 km
Di, 22.10. 13:30 76% 13 km
Di, 22.10. 13:00 78% 13 km
Di, 22.10. 12:30 80% 13 km
Ortszeit Niederschlagsmenge Niederschlagsart
Di, 22.10. 14:00 0.0 l/m2 in 6 Std. -
Di, 22.10. 8:00 0.1 l/m2 in 12 Std. -
Di, 22.10. 2:00 0.0 l/m2 in 6 Std. -
Mo, 21.10. 20:00 0.1 l/m2 in 12 Std. Regen
Mo, 21.10. 14:00 0.1 l/m2 in 6 Std. Regen
Mo, 21.10. 8:00 0.0 l/m2 in 12 Std. -
Mo, 21.10. 2:00 0.0 l/m2 in 6 Std. -
So, 20.10. 20:00 0.0 l/m2 in 12 Std. -
Ortszeit Niederschlagsmenge Niederschlagsart
Di, 22.10. 15:30 0.0 l/m2 in 1 Std. -
Di, 22.10. 15:20 keine Meldung -
Di, 22.10. 15:10 keine Meldung -
Di, 22.10. 15:00 0.0 l/m2 in 1 Std. -
Di, 22.10. 14:50 keine Meldung -
Di, 22.10. 14:40 keine Meldung -
Di, 22.10. 14:30 0.0 l/m2 in 1 Std. -
Di, 22.10. 14:00 0.0 l/m2 in 1 Std. -
Di, 22.10. 13:30 0.0 l/m2 in 1 Std. -
Di, 22.10. 13:00 0.0 l/m2 in 1 Std. -
Di, 22.10. 12:30 0.0 l/m2 in 1 Std. -
Ortszeit Stärke Spitze Richtung
km/h Bft. km/h Grad Sektor
Di, 22.10. 14:00 4 1 11 330° NW
Di, 22.10. 8:00 4 1 11 80° O
Di, 22.10. 2:00 4 1 7 290° W
Mo, 21.10. 20:00 0 0 14 - -
Mo, 21.10. 14:00 4 1 11 360° N
Mo, 21.10. 8:00 2 1 7 230° SW
Mo, 21.10. 2:00 2 1 9 320° NW
So, 20.10. 20:00 4 1 18 190° S
Ortszeit Stärke Spitze Richtung
km/h Bft. km/h Grad Sektor
Di, 22.10. 15:30 9 2 17 20° N
Di, 22.10. 15:20 9 2 - 20° N
Di, 22.10. 15:10 11 2 - 10° N
Di, 22.10. 15:00 7 2 14 10° N
Di, 22.10. 14:50 7 2 - 10° N
Di, 22.10. 14:40 7 2 - 350° N
Di, 22.10. 14:30 6 1 11 20° N
Di, 22.10. 14:00 4 1 7 330° NW
Di, 22.10. 13:30 4 1 7 310° NW
Di, 22.10. 13:00 4 1 7 280° W
Di, 22.10. 12:30 4 1 7 210° SW
Ortszeit Untergrenze Bedeckung Gattung
total tief tief mittel hoch
Di, 22.10. 14:00 9000 m 7/8 0/8 - - -
Di, 22.10. 8:00 9000 m 7/8 0/8 - - -
Di, 22.10. 2:00 <30 m 8/8 0/8 - - -
Mo, 21.10. 20:00 8100 m 8/8 0/8 - - -
Mo, 21.10. 14:00 3900 m 8/8 8/8 - - -
Mo, 21.10. 8:00 <30 m 6/8 0/8 - - -
Mo, 21.10. 2:00 7200 m 8/8 0/8 - - -
So, 20.10. 20:00 8100 m 8/8 0/8 - - -
Ortszeit Bedeckungsgrad in Achtel und Wolkenuntergrenze
Di, 22.10. 15:30 5(9000m) 6(10500m)
Di, 22.10. 15:20 5(9000m) 6(10500m)
Di, 22.10. 15:10 6(9000m) 6(10500m)
Di, 22.10. 15:00 3(9000m) 3(10500m)
Di, 22.10. 14:50 3(9000m)
Di, 22.10. 14:40 keine Wolken
Di, 22.10. 14:30 2(9000m)
Di, 22.10. 14:00 7(9000m)
Di, 22.10. 13:30 7(9000m)
Di, 22.10. 13:00 1(9000m)
Di, 22.10. 12:30 1(9000m)
Ortszeit Luftdruck NN (hPa) Tendenz (hPa in 3 Std.)
Di, 22.10. 14:00 1023 - 0,4
Di, 22.10. 8:00 1024 + 0,7
Di, 22.10. 2:00 1023 + 0,7
Mo, 21.10. 20:00 1021 + 1,2
Mo, 21.10. 14:00 1019 - 0,2
Mo, 21.10. 8:00 1018 + 2,1
Mo, 21.10. 2:00 1014 + 0,8
So, 20.10. 20:00 1012 + 0,4
Ortszeit Luftdruck NN (hPa) Tendenz (hPa in 3 Std.)
Di, 22.10. 15:30 1022 - 1,1
Di, 22.10. 15:20 1022 keine Meldung
Di, 22.10. 15:10 1022 keine Meldung
Di, 22.10. 15:00 1023 - 0,8
Di, 22.10. 14:50 1023 keine Meldung
Di, 22.10. 14:40 1023 keine Meldung
Di, 22.10. 14:30 1023 - 0,6
Di, 22.10. 14:00 1023 - 0,4
Di, 22.10. 13:30 1024 0,0
Di, 22.10. 13:00 1024 + 0,4
Di, 22.10. 12:30 1024 + 0,4
Ortszeit Schneehöhe (cm)
Di, 22.10. 14:00 0
Di, 22.10. 8:00 0
Di, 22.10. 2:00 0
Mo, 21.10. 20:00 0
Mo, 21.10. 14:00 0
Mo, 21.10. 8:00 0
Mo, 21.10. 2:00 0
So, 20.10. 20:00 0
Ortszeit Schneehöhe (cm)
Di, 22.10. 15:30 0
Di, 22.10. 15:20 0
Di, 22.10. 15:10 0
Di, 22.10. 15:00 0
Di, 22.10. 14:50 0
Di, 22.10. 14:40 0
Di, 22.10. 14:30 0
Di, 22.10. 14:00 0
Di, 22.10. 13:30 0
Di, 22.10. 13:00 0
Di, 22.10. 12:30 0
Link zu dieser Seite / Seite empfehlen

Das Wetter in ...